Terminal Aerodrome Forecast
Issued by NWS Lubbock, TX

Home | Current Version | Previous Version | Text Only | Print | Product List | Glossary On
Versions: 1 2 3 4 5 6 7 8 9 10 11 12 13 14 15 16 17 18 19 20 21 22 23 24 25 26 27 28 29 30 31 32
000
FTUS44 KLUB 230700 AAA
TAFLBB
TAF AMD
KLBB 230744Z 2308/2406 11008KT P6SM BKN250
     FM231000 15007KT P6SM BKN035 BKN120
     FM231800 17011KT P6SM SCT040 BKN150=

USA.gov is the U.S. government's official web portal to all federal, state and local government web resources and services.